createdAt,value
2022-09-30T00:02:07.115Z,99098.22
2022-09-30T00:04:37.261Z,99105.69
2022-09-30T00:07:07.531Z,99099.56
2022-09-30T00:09:37.724Z,99104.56
2022-09-30T00:12:10.712Z,99110.38
2022-09-30T00:14:40.943Z,99102.25
2022-09-30T00:17:11.116Z,99100.25
2022-09-30T00:19:41.540Z,99066.78
2022-09-30T00:22:11.781Z,99089.63
2022-09-30T00:24:44.695Z,99096.94
2022-09-30T00:27:18.499Z,99089.81
2022-09-30T00:29:48.888Z,99096.28
2022-09-30T00:32:19.026Z,99099.13
2022-09-30T00:34:49.238Z,99097.94
2022-09-30T00:37:21.759Z,99096.13
2022-09-30T00:39:51.923Z,99091.13
2022-09-30T00:42:30.187Z,99083.16
2022-09-30T00:45:08.084Z,99100.25
2022-09-30T00:47:47.526Z,99102.06
2022-09-30T00:50:28.180Z,99103.72
2022-09-30T00:53:09.754Z,99090.44
2022-09-30T00:55:47.812Z,99088.78
2022-09-30T00:58:29.162Z,99092.28
2022-09-30T01:01:01.888Z,99079.66
2022-09-30T01:03:34.053Z,99069.03
2022-09-30T01:06:05.131Z,99063.53
2022-09-30T01:08:39.448Z,99071.69
2022-09-30T01:11:09.786Z,99073.16
2022-09-30T01:13:44.699Z,99065.03
2022-09-30T01:16:28.343Z,99072.81
2022-09-30T01:19:16.850Z,99068.16
2022-09-30T01:22:20.697Z,99056.56
2022-09-30T01:25:07.098Z,99059.00
2022-09-30T01:28:04.669Z,99072.94
2022-09-30T01:31:00.850Z,99098.00
2022-09-30T01:33:44.216Z,99125.88
2022-09-30T01:36:32.394Z,99151.28
2022-09-30T01:39:15.539Z,99162.56
2022-09-30T01:41:54.811Z,99148.63
2022-09-30T01:44:36.589Z,99157.41
2022-09-30T01:47:17.876Z,99151.28
2022-09-30T01:49:54.698Z,99155.75
2022-09-30T01:52:30.739Z,99154.94
2022-09-30T01:55:07.227Z,99154.94
2022-09-30T01:57:47.473Z,99160.59
2022-09-30T02:00:18.214Z,99163.91
2022-09-30T02:02:56.201Z,99164.06
2022-09-30T02:05:34.125Z,99142.19
2022-09-30T02:08:07.983Z,99159.94
2022-09-30T02:10:40.848Z,99152.63
2022-09-30T02:13:16.042Z,99146.31
2022-09-30T02:15:52.701Z,99121.41
2022-09-30T02:18:31.967Z,99120.94
2022-09-30T02:21:05.770Z,99122.06
2022-09-30T02:23:36.938Z,99113.44
2022-09-30T02:26:10.451Z,99120.59
2022-09-30T02:28:45.531Z,99111.78
2022-09-30T02:31:18.734Z,99112.78
2022-09-30T02:33:57.292Z,99099.16
2022-09-30T02:36:32.114Z,99099.16
2022-09-30T02:39:06.453Z,99089.72
2022-09-30T02:41:41.653Z,99085.41
2022-09-30T02:44:12.109Z,99077.59
2022-09-30T02:46:50.180Z,99085.56
2022-09-30T02:49:29.775Z,99090.72
2022-09-30T02:52:15.969Z,99096.34
2022-09-30T02:54:55.417Z,99100.66
2022-09-30T02:57:34.831Z,99096.50
2022-09-30T03:00:08.927Z,99089.53
2022-09-30T03:02:43.550Z,99086.72
2022-09-30T03:05:17.740Z,99087.22
2022-09-30T03:07:48.216Z,99081.63
2022-09-30T03:10:21.118Z,99074.75
2022-09-30T03:13:12.864Z,99078.25
2022-09-30T03:15:59.584Z,99070.44
2022-09-30T03:18:45.704Z,99071.28
2022-09-30T03:21:33.487Z,99068.81
2022-09-30T03:24:28.454Z,99076.13
2022-09-30T03:27:14.834Z,99068.34
2022-09-30T03:29:52.634Z,99072.00
2022-09-30T03:32:35.972Z,99071.16
2022-09-30T03:35:19.833Z,99078.97
2022-09-30T03:37:57.882Z,99074.13
2022-09-30T03:40:35.436Z,99082.75
2022-09-30T03:43:11.669Z,99088.53
2022-09-30T03:45:47.682Z,99080.56
2022-09-30T03:48:19.854Z,99092.84
2022-09-30T03:50:50.285Z,99090.19
2022-09-30T03:53:23.949Z,99097.16
2022-09-30T03:55:55.348Z,99099.00
2022-09-30T03:58:26.763Z,99096.00
2022-09-30T04:01:00.355Z,99083.75
2022-09-30T04:03:30.550Z,99107.28
2022-09-30T04:06:04.242Z,99102.44
2022-09-30T04:08:39.232Z,99115.72
2022-09-30T04:11:09.687Z,99103.78
2022-09-30T04:13:44.028Z,99142.31
2022-09-30T04:16:14.251Z,99158.59
2022-09-30T04:18:46.578Z,99132.88
2022-09-30T04:21:18.286Z,99117.59
2022-09-30T04:23:51.063Z,99109.44
2022-09-30T04:26:23.207Z,99101.00
2022-09-30T04:28:53.367Z,99090.53
2022-09-30T04:31:23.764Z,99078.25
2022-09-30T04:33:54.023Z,99081.28
2022-09-30T04:36:24.126Z,99091.53
2022-09-30T04:38:58.155Z,99083.06
2022-09-30T04:41:29.434Z,99078.56
2022-09-30T04:44:06.329Z,99086.38
2022-09-30T04:46:37.733Z,99089.84
2022-09-30T04:49:09.542Z,99084.19
2022-09-30T04:51:44.075Z,99057.84
2022-09-30T04:54:19.554Z,99073.56
2022-09-30T04:56:52.666Z,99085.69
2022-09-30T04:59:22.967Z,99107.94
2022-09-30T05:01:53.186Z,99148.13
2022-09-30T05:04:23.336Z,99101.50
2022-09-30T05:06:53.469Z,99087.72
2022-09-30T05:09:26.286Z,99090.53
2022-09-30T05:11:56.474Z,99083.06
2022-09-30T05:14:26.575Z,99091.84
2022-09-30T05:16:56.747Z,99096.00
2022-09-30T05:19:27.063Z,99112.06
2022-09-30T05:21:57.104Z,99115.56
2022-09-30T05:24:33.199Z,99112.59
2022-09-30T05:27:03.903Z,99125.88
2022-09-30T05:29:34.037Z,99129.03
2022-09-30T05:32:04.576Z,99187.81
2022-09-30T05:34:35.060Z,99220.69
2022-09-30T05:37:05.154Z,99195.28
2022-09-30T05:39:38.182Z,99181.34
2022-09-30T05:42:13.274Z,99157.50
2022-09-30T05:44:44.124Z,99165.59
2022-09-30T05:47:14.306Z,99178.19
2022-09-30T05:49:45.699Z,99167.91
2022-09-30T05:52:15.985Z,99164.75
2022-09-30T05:54:50.833Z,99165.25
2022-09-30T05:57:21.178Z,99165.88
2022-09-30T05:59:51.256Z,99169.53
2022-09-30T06:02:21.533Z,99164.75
2022-09-30T06:04:53.078Z,99162.94
2022-09-30T06:07:23.313Z,99175.88
2022-09-30T06:09:56.118Z,99162.06
2022-09-30T06:12:27.578Z,99163.06
2022-09-30T06:14:57.948Z,99157.41
2022-09-30T06:17:28.130Z,99155.84
2022-09-30T06:19:58.436Z,99154.47
2022-09-30T06:22:28.608Z,99160.09
2022-09-30T06:25:01.385Z,99153.97
2022-09-30T06:27:31.721Z,99163.28
2022-09-30T06:30:02.006Z,99173.25
2022-09-30T06:32:33.467Z,99171.44
2022-09-30T06:35:04.319Z,99175.22
2022-09-30T06:37:35.189Z,99179.41
2022-09-30T06:40:09.438Z,99185.56
2022-09-30T06:42:39.649Z,99178.78
2022-09-30T06:45:25.959Z,99194.22
2022-09-30T06:48:01.077Z,99196.88
2022-09-30T06:50:31.873Z,99215.31
2022-09-30T06:53:02.793Z,99226.44
2022-09-30T06:55:39.222Z,99233.41
2022-09-30T06:58:12.616Z,99237.22
2022-09-30T07:00:42.877Z,99253.84
2022-09-30T07:03:28.965Z,99248.91
2022-09-30T07:06:03.212Z,99252.25
2022-09-30T07:08:34.714Z,99239.69
2022-09-30T07:11:15.353Z,99253.59
2022-09-30T07:13:47.109Z,99254.44
2022-09-30T07:16:18.026Z,99259.25
2022-09-30T07:18:48.992Z,99266.88
2022-09-30T07:21:19.257Z,99242.16
2022-09-30T07:23:51.085Z,99233.03
2022-09-30T07:26:25.660Z,99237.63
2022-09-30T07:28:57.442Z,99238.47
2022-09-30T07:31:36.615Z,99235.75
2022-09-30T07:34:09.349Z,99238.31
2022-09-30T07:36:41.924Z,99218.97
2022-09-30T07:39:13.916Z,99220.44
2022-09-30T07:41:46.805Z,99219.28
2022-09-30T07:44:17.567Z,99222.88
2022-09-30T07:46:48.256Z,99213.78
2022-09-30T07:49:24.808Z,99217.38
2022-09-30T07:51:57.182Z,99212.03
2022-09-30T07:54:29.452Z,99213.72
2022-09-30T07:57:11.761Z,99218.75
2022-09-30T07:59:44.106Z,99204.22
2022-09-30T08:02:18.131Z,99209.47
2022-09-30T08:04:48.662Z,99220.19
2022-09-30T08:07:22.110Z,99224.09
2022-09-30T08:09:52.281Z,99226.97
2022-09-30T08:12:25.095Z,99230.50
2022-09-30T08:14:56.503Z,99222.38
2022-09-30T08:17:26.588Z,99224.09
2022-09-30T08:19:56.767Z,99216.28
2022-09-30T08:22:26.902Z,99215.06
2022-09-30T08:24:57.006Z,99209.63
2022-09-30T08:27:29.819Z,99206.41
2022-09-30T08:30:04.337Z,99206.25
2022-09-30T08:32:38.713Z,99214.16
2022-09-30T08:35:09.568Z,99210.25
2022-09-30T08:37:42.176Z,99208.97
2022-09-30T08:40:22.098Z,99223.47
2022-09-30T08:43:11.703Z,99227.31
2022-09-30T08:45:54.236Z,99238.06
2022-09-30T08:48:39.342Z,99224.06
2022-09-30T08:51:27.865Z,99235.63
2022-09-30T08:54:00.436Z,99224.28
2022-09-30T08:56:33.881Z,99237.94
2022-09-30T08:59:11.825Z,99245.75
2022-09-30T09:01:47.337Z,99243.09
2022-09-30T09:04:17.978Z,99237.91
2022-09-30T09:06:56.211Z,99233.38
2022-09-30T09:09:51.100Z,99252.19
2022-09-30T09:12:32.504Z,99258.97
2022-09-30T09:15:25.220Z,99264.13
2022-09-30T09:18:23.043Z,99254.91
2022-09-30T09:21:00.085Z,99255.25
2022-09-30T09:23:33.586Z,99257.50
2022-09-30T09:26:04.142Z,99265.88
2022-09-30T09:28:40.471Z,99276.72
2022-09-30T09:31:19.778Z,99280.47
2022-09-30T09:33:50.675Z,99275.06
2022-09-30T09:36:34.174Z,99283.16
2022-09-30T09:39:19.590Z,99273.84
2022-09-30T09:41:58.913Z,99277.88
2022-09-30T09:44:35.973Z,99278.47
2022-09-30T09:47:15.325Z,99283.06
2022-09-30T09:49:46.916Z,99285.91
2022-09-30T09:52:31.497Z,99293.72
2022-09-30T09:55:01.644Z,99285.09
2022-09-30T09:57:34.158Z,99295.03
2022-09-30T10:00:28.572Z,99302.50
2022-09-30T10:03:06.179Z,99307.44
2022-09-30T10:05:39.919Z,99303.50
2022-09-30T10:08:17.371Z,99303.38
2022-09-30T10:10:52.896Z,99310.75
2022-09-30T10:13:25.299Z,99311.44
2022-09-30T10:15:57.558Z,99305.28
2022-09-30T10:18:35.826Z,99317.28
2022-09-30T10:21:11.442Z,99317.66
2022-09-30T10:23:43.449Z,99325.88
2022-09-30T10:26:21.687Z,99326.38
2022-09-30T10:28:54.318Z,99327.03
2022-09-30T10:31:30.032Z,99328.63
2022-09-30T10:34:10.678Z,99336.34
2022-09-30T10:36:44.806Z,99328.78
2022-09-30T10:39:24.870Z,99337.81
2022-09-30T10:42:04.066Z,99335.78
2022-09-30T10:44:34.384Z,99333.38
2022-09-30T10:47:06.735Z,99343.94
2022-09-30T10:49:49.317Z,99348.75
2022-09-30T10:52:23.607Z,99359.44
2022-09-30T10:54:56.867Z,99332.78
2022-09-30T10:57:29.923Z,99347.19
2022-09-30T11:00:05.366Z,99340.59
2022-09-30T11:02:42.873Z,99342.44
2022-09-30T11:05:23.207Z,99342.88
2022-09-30T11:08:01.590Z,99351.16
2022-09-30T11:10:39.166Z,99360.34
2022-09-30T11:13:16.809Z,99362.69
2022-09-30T11:15:59.351Z,99371.94
2022-09-30T11:18:37.721Z,99376.03
2022-09-30T11:21:19.620Z,99393.06
2022-09-30T11:23:55.446Z,99404.78
2022-09-30T11:26:40.797Z,99402.09
2022-09-30T11:29:33.818Z,99404.34
2022-09-30T11:32:15.924Z,99396.41
2022-09-30T11:34:57.292Z,99418.13
2022-09-30T11:37:43.245Z,99415.00
2022-09-30T11:40:33.333Z,99415.75
2022-09-30T11:43:14.193Z,99425.69
2022-09-30T11:46:11.874Z,99426.59
2022-09-30T11:49:00.680Z,99435.44
2022-09-30T11:51:37.337Z,99441.06
2022-09-30T11:54:25.086Z,99442.72
2022-09-30T11:57:05.399Z,99444.09
2022-09-30T11:59:44.982Z,99444.38
2022-09-30T12:02:30.253Z,99438.41
2022-09-30T12:05:07.407Z,99443.19
2022-09-30T12:07:45.166Z,99451.31
2022-09-30T12:10:24.485Z,99447.31
2022-09-30T12:12:59.457Z,99448.19
2022-09-30T12:15:31.337Z,99459.97
2022-09-30T12:18:05.251Z,99457.13
2022-09-30T12:20:36.840Z,99463.38
2022-09-30T12:23:17.282Z,99466.09
2022-09-30T12:25:55.818Z,99470.56
2022-09-30T12:28:47.777Z,99479.91
2022-09-30T12:31:41.553Z,99476.47
2022-09-30T12:34:31.979Z,99482.41
2022-09-30T12:37:17.643Z,99487.66
2022-09-30T12:40:04.295Z,99504.50
2022-09-30T12:43:09.313Z,99507.06
2022-09-30T12:46:07.934Z,99504.44
2022-09-30T12:48:42.188Z,99509.78
2022-09-30T12:51:13.962Z,99499.72
2022-09-30T12:53:45.339Z,99503.13
2022-09-30T12:56:18.040Z,99511.63
2022-09-30T12:58:54.762Z,99510.44
2022-09-30T13:01:28.571Z,99516.88
2022-09-30T13:04:23.071Z,99514.47
2022-09-30T13:07:11.299Z,99512.09
2022-09-30T13:10:03.404Z,99512.00
2022-09-30T13:12:45.894Z,99527.47
2022-09-30T13:15:45.352Z,99528.66
2022-09-30T13:18:45.550Z,99535.84
2022-09-30T13:21:27.220Z,99540.44
2022-09-30T13:24:00.504Z,99534.66
2022-09-30T13:26:40.336Z,99536.75
2022-09-30T13:29:38.529Z,99543.94
2022-09-30T13:32:13.329Z,99537.41
2022-09-30T13:35:00.332Z,99545.41
2022-09-30T13:37:42.446Z,99535.00
2022-09-30T13:40:57.202Z,99541.16
2022-09-30T13:43:23.777Z,99543.84
2022-09-30T13:45:56.401Z,99537.50
2022-09-30T13:48:33.990Z,99543.94
2022-09-30T13:51:10.045Z,99534.72
2022-09-30T13:53:44.713Z,99538.06
2022-09-30T13:56:22.189Z,99537.34
2022-09-30T13:59:22.081Z,99534.56
2022-09-30T14:02:05.625Z,99542.38
2022-09-30T14:04:52.338Z,99557.03
2022-09-30T14:07:37.808Z,99553.16
2022-09-30T14:10:25.140Z,99553.22
2022-09-30T14:13:12.227Z,99561.91
2022-09-30T14:15:57.478Z,99570.84
2022-09-30T14:18:56.505Z,99563.16
2022-09-30T14:21:38.598Z,99568.22
2022-09-30T14:24:17.747Z,99571.44
2022-09-30T14:27:08.843Z,99576.47
2022-09-30T14:29:47.049Z,99575.41
2022-09-30T14:32:23.204Z,99582.34
2022-09-30T14:34:56.681Z,99542.88
2022-09-30T14:37:34.002Z,99593.63
2022-09-30T14:40:05.322Z,99591.09
2022-09-30T14:42:39.006Z,99590.44
2022-09-30T14:45:11.002Z,99600.50
2022-09-30T14:47:45.972Z,99598.69
2022-09-30T14:50:21.836Z,99592.97
2022-09-30T14:52:57.233Z,99597.31
2022-09-30T14:55:31.576Z,99599.84
2022-09-30T14:58:29.406Z,99597.13
2022-09-30T15:01:04.768Z,99604.44
2022-09-30T15:03:38.336Z,99602.28
2022-09-30T15:06:10.517Z,99603.50
2022-09-30T15:08:43.331Z,99611.25
2022-09-30T15:11:21.461Z,99610.53
2022-09-30T15:13:54.025Z,99613.03
2022-09-30T15:16:28.608Z,99605.13
2022-09-30T15:18:59.893Z,99613.84
2022-09-30T15:21:33.410Z,99614.56
2022-09-30T15:24:07.357Z,99613.19
2022-09-30T15:26:38.615Z,99617.63
2022-09-30T15:29:09.014Z,99616.78
2022-09-30T15:31:49.518Z,99614.94
2022-09-30T15:34:24.115Z,99617.88
2022-09-30T15:37:06.526Z,99638.81
2022-09-30T15:39:55.696Z,99636.16
2022-09-30T15:42:36.788Z,99637.28
2022-09-30T15:45:08.826Z,99638.97
2022-09-30T15:47:58.131Z,99633.88
2022-09-30T15:50:48.195Z,99643.38
2022-09-30T15:53:25.103Z,99639.75
2022-09-30T15:56:00.820Z,99646.59
2022-09-30T15:58:43.503Z,99649.28
2022-09-30T16:01:21.786Z,99651.16
2022-09-30T16:03:58.152Z,99660.66
2022-09-30T16:06:32.738Z,99654.88
2022-09-30T16:09:06.807Z,99667.84
2022-09-30T16:11:41.307Z,99658.69
2022-09-30T16:14:15.320Z,99666.84
2022-09-30T16:16:54.794Z,99665.53
2022-09-30T16:19:29.891Z,99675.84
2022-09-30T16:22:03.914Z,99678.66
2022-09-30T16:24:47.931Z,99689.31
2022-09-30T16:27:33.280Z,99688.78
2022-09-30T16:30:18.821Z,99692.66
2022-09-30T16:32:51.445Z,99692.97
2022-09-30T16:35:26.651Z,99699.59
2022-09-30T16:38:03.139Z,99698.44
2022-09-30T16:40:35.821Z,99706.06
2022-09-30T16:43:11.907Z,99711.53
2022-09-30T16:45:43.965Z,99715.34
2022-09-30T16:48:18.143Z,99710.22
2022-09-30T16:50:52.031Z,99701.06
2022-09-30T16:53:22.143Z,99705.88
2022-09-30T16:55:52.790Z,99709.00
2022-09-30T16:58:26.028Z,99707.97
2022-09-30T17:00:57.918Z,99714.44
2022-09-30T17:03:36.804Z,99704.41
2022-09-30T17:06:07.091Z,99729.00
2022-09-30T17:08:39.885Z,99731.16
2022-09-30T17:11:11.253Z,99739.75
2022-09-30T17:13:49.731Z,99735.25
2022-09-30T17:16:20.064Z,99740.38
2022-09-30T17:18:55.036Z,99741.81
2022-09-30T17:21:26.825Z,99748.75
2022-09-30T17:24:01.347Z,99758.03
2022-09-30T17:26:31.700Z,99757.38
2022-09-30T17:29:20.963Z,99756.00
2022-09-30T17:31:58.143Z,99759.97
2022-09-30T17:34:29.961Z,99759.44
2022-09-30T17:37:00.285Z,99767.72
2022-09-30T17:39:30.699Z,99777.50
2022-09-30T17:42:13.262Z,99790.09
2022-09-30T17:44:46.106Z,99787.09
2022-09-30T17:47:16.414Z,99784.91
2022-09-30T17:49:47.789Z,99785.34
2022-09-30T17:52:18.346Z,99778.69
2022-09-30T17:54:52.252Z,99778.00
2022-09-30T17:57:23.236Z,99780.13
2022-09-30T17:59:59.034Z,99772.63
2022-09-30T18:02:33.206Z,99764.00
2022-09-30T18:05:04.096Z,99769.97
2022-09-30T18:07:34.343Z,99776.28
2022-09-30T18:10:04.858Z,99774.59
2022-09-30T18:12:36.391Z,99767.63
2022-09-30T18:15:11.171Z,99778.41
2022-09-30T18:17:48.812Z,99778.53
2022-09-30T18:20:21.984Z,99779.38
2022-09-30T18:22:55.115Z,99796.16
2022-09-30T18:25:26.129Z,99799.78
2022-09-30T18:27:59.542Z,99798.94
2022-09-30T18:30:32.509Z,99802.44
2022-09-30T18:33:04.438Z,99806.22
2022-09-30T18:35:34.775Z,99804.72
2022-09-30T18:38:05.776Z,99814.94
2022-09-30T18:40:36.535Z,99807.19
2022-09-30T18:43:07.594Z,99801.19
2022-09-30T18:45:40.667Z,99819.97
2022-09-30T18:48:12.379Z,99818.09
2022-09-30T18:50:47.646Z,99818.69
2022-09-30T18:53:17.894Z,99814.66
2022-09-30T18:55:48.150Z,99814.94
2022-09-30T18:58:18.727Z,99815.56
2022-09-30T19:00:51.542Z,99813.22
2022-09-30T19:03:21.845Z,99816.00
2022-09-30T19:05:52.084Z,99817.81
2022-09-30T19:08:22.241Z,99820.78
2022-09-30T19:10:55.180Z,99828.34
2022-09-30T19:13:28.815Z,99826.94
2022-09-30T19:16:06.023Z,99817.94
2022-09-30T19:18:37.111Z,99831.19
2022-09-30T19:21:10.157Z,99831.09
2022-09-30T19:23:40.990Z,99836.97
2022-09-30T19:26:15.595Z,99844.38
2022-09-30T19:28:46.336Z,99842.84
2022-09-30T19:31:21.014Z,99839.13
2022-09-30T19:33:56.418Z,99836.06
2022-09-30T19:36:28.979Z,99839.97
2022-09-30T19:39:11.055Z,99847.38
2022-09-30T19:41:42.701Z,99853.66
2022-09-30T19:44:19.357Z,99850.44
2022-09-30T19:46:55.033Z,99844.06
2022-09-30T19:49:28.730Z,99847.00
2022-09-30T19:51:59.164Z,99836.97
2022-09-30T19:54:38.547Z,99831.94
2022-09-30T19:57:11.621Z,99828.91
2022-09-30T19:59:42.779Z,99828.75
2022-09-30T20:02:16.137Z,99835.59
2022-09-30T20:04:46.617Z,99834.06
2022-09-30T20:07:19.868Z,99834.06
2022-09-30T20:09:50.217Z,99839.91
2022-09-30T20:12:22.841Z,99836.69
2022-09-30T20:15:05.323Z,99840.44
2022-09-30T20:17:38.185Z,99843.34
2022-09-30T20:20:22.175Z,99845.56
2022-09-30T20:22:53.436Z,99837.47
2022-09-30T20:25:23.659Z,99851.81
2022-09-30T20:27:53.821Z,99849.56
2022-09-30T20:30:25.187Z,99858.75
2022-09-30T20:32:58.607Z,99854.00
2022-09-30T20:35:29.105Z,99860.81
2022-09-30T20:37:59.358Z,99853.41
2022-09-30T20:40:29.797Z,99848.13
2022-09-30T20:43:02.161Z,99847.00
2022-09-30T20:45:32.456Z,99847.00
2022-09-30T20:48:10.115Z,99838.34
2022-09-30T20:50:45.349Z,99844.06
2022-09-30T20:53:19.419Z,99852.84
2022-09-30T20:55:53.191Z,99850.19
2022-09-30T20:58:23.303Z,99852.22
2022-09-30T21:00:53.556Z,99857.38
2022-09-30T21:03:29.609Z,99868.69
2022-09-30T21:05:59.784Z,99861.84
2022-09-30T21:08:30.256Z,99865.91
2022-09-30T21:11:05.082Z,99879.84
2022-09-30T21:13:35.467Z,99875.38
2022-09-30T21:16:08.633Z,99875.22
2022-09-30T21:18:42.429Z,99893.50
2022-09-30T21:21:20.538Z,99901.47
2022-09-30T21:23:50.733Z,99912.63
2022-09-30T21:26:25.194Z,99923.78
2022-09-30T21:28:55.431Z,99914.28
2022-09-30T21:31:27.771Z,99916.38
2022-09-30T21:34:02.004Z,99922.66
2022-09-30T21:36:33.049Z,99922.34
2022-09-30T21:39:05.129Z,99929.88
2022-09-30T21:41:36.887Z,99914.78
2022-09-30T21:44:07.181Z,99919.53
2022-09-30T21:46:38.458Z,99916.19
2022-09-30T21:49:20.361Z,99912.75
2022-09-30T21:51:51.260Z,99894.59
2022-09-30T21:54:21.613Z,99906.75
2022-09-30T21:56:52.021Z,99907.88
2022-09-30T21:59:22.144Z,99905.34
2022-09-30T22:01:57.880Z,99913.03
2022-09-30T22:04:32.708Z,99913.03
2022-09-30T22:07:05.189Z,99910.38
2022-09-30T22:09:39.239Z,99904.09
2022-09-30T22:12:12.576Z,99908.56
2022-09-30T22:14:42.800Z,99895.81
2022-09-30T22:17:13.042Z,99901.28
2022-09-30T22:19:45.912Z,99899.63
2022-09-30T22:22:16.295Z,99896.97
2022-09-30T22:24:48.255Z,99896.13
2022-09-30T22:27:18.363Z,99889.84
2022-09-30T22:29:50.310Z,99896.50
2022-09-30T22:32:20.447Z,99892.03
2022-09-30T22:35:05.599Z,99894.69
2022-09-30T22:37:48.122Z,99904.16
2022-09-30T22:40:18.492Z,99903.19
2022-09-30T22:42:49.126Z,99894.41
2022-09-30T22:45:19.535Z,99881.56
2022-09-30T22:47:49.710Z,99879.06
2022-09-30T22:50:26.246Z,99883.56
2022-09-30T22:52:56.317Z,99874.44
2022-09-30T22:55:26.498Z,99875.28
2022-09-30T22:57:56.644Z,99878.75
2022-09-30T23:00:27.066Z,99888.41
2022-09-30T23:02:57.163Z,99878.91
2022-09-30T23:05:29.917Z,99878.91
2022-09-30T23:08:00.109Z,99889.22
2022-09-30T23:10:30.311Z,99881.56
2022-09-30T23:13:00.544Z,99887.41
2022-09-30T23:15:31.377Z,99878.63
2022-09-30T23:18:01.511Z,99862.84
2022-09-30T23:20:35.852Z,99873.31
2022-09-30T23:23:06.023Z,99866.63
2022-09-30T23:25:36.556Z,99863.00
2022-09-30T23:28:13.835Z,99861.03
2022-09-30T23:30:44.150Z,99872.34
2022-09-30T23:33:14.276Z,99866.88
2022-09-30T23:35:50.888Z,99865.06
2022-09-30T23:38:21.338Z,99868.41
2022-09-30T23:40:51.893Z,99878.19
2022-09-30T23:43:22.360Z,99879.56
2022-09-30T23:45:52.509Z,99884.88
2022-09-30T23:48:23.526Z,99896.31
2022-09-30T23:51:00.216Z,99904.00
2022-09-30T23:53:30.663Z,99914.31
2022-09-30T23:56:02.973Z,99910.19
2022-09-30T23:58:34.039Z,99903.56
